Terminal Aerodrome Forecast
Issued by NWS

Home | Current Version | Previous Version | Text Only | Print | Product List | Glossary On
Versions: 1 2 3 4 5 6 7 8 9 10 11 12 13 14 15 16 17 18 19 20 21 22 23 24
169
FTUS41 KCAR 271600 AAB
TAFFVE
TAF AMD
KFVE 271600Z 2716/2812 12006KT 1/4SM FG VCSH VV002
     FM271800 12004KT 1 1/2SM BR OVC005
     FM272000 10006KT 1/2SM FG OVC003=

USA.gov is the U.S. government's official web portal to all federal, state and local government web resources and services.